Time;durP1;ratioP1;P1;durP2;ratioP2;P2;SDS_P1;SDS_P2;PMS_P1;PMS_P2;Temp;Humidity;BMP_temperature;BMP_pressure;BME280_temperature;BME280_humidity;BME280_pressure;Samples;Min_cycle;Max_cycle;Signal;HPM_P1;HPM_P2
2021/08/23 00:00:57;;;;;;;5.28;2.80;;;17.90;99.90;;;;;;12448049;28;20092;-43
2021/08/23 00:06:59;;;;;;;3.47;2.47;;;17.80;99.90;;;;;;12448558;28;20123;-43
2021/08/23 00:13:01;;;;;;;5.50;2.92;;;17.80;99.90;;;;;;12441850;28;20054;-44
2021/08/23 00:19:03;;;;;;;4.80;3.03;;;17.60;99.90;;;;;;12451283;28;20860;-44
2021/08/23 00:25:05;;;;;;;6.50;3.45;;;17.50;99.90;;;;;;12455518;28;20055;-44
2021/08/23 00:31:07;;;;;;;7.35;4.93;;;17.40;99.90;;;;;;12444575;28;20437;-42
2021/08/23 00:37:10;;;;;;;8.75;5.82;;;17.20;99.90;;;;;;12451931;28;20462;-42
2021/08/23 00:43:12;;;;;;;9.27;7.28;;;17.10;99.90;;;;;;12453786;28;20099;-45
2021/08/23 00:49:13;;;;;;;9.77;7.63;;;17.10;99.90;;;;;;12458002;28;20148;-44
2021/08/23 00:55:16;;;;;;;13.02;9.40;;;17.10;99.90;;;;;;12451191;28;20045;-43
2021/08/23 01:01:20;;;;;;;11.65;7.78;;;17.00;99.90;;;;;;12456448;28;20087;-44
2021/08/23 01:07:32;;;;;;;9.77;7.13;;;17.10;99.90;;;;;;12453442;28;20103;-44
2021/08/23 01:13:35;;;;;;;8.20;6.20;;;17.00;99.90;;;;;;12454986;28;20137;-43
2021/08/23 01:19:45;;;;;;;8.75;6.90;;;17.00;99.90;;;;;;12475810;28;20053;-43
2021/08/23 01:25:48;;;;;;;8.27;6.40;;;16.90;99.90;;;;;;12493032;28;20496;-44
2021/08/23 01:32:02;;;;;;;8.27;5.93;;;16.90;99.90;;;;;;12497250;28;20058;-43
2021/08/23 01:38:04;;;;;;;11.65;7.28;;;16.90;99.90;;;;;;12497024;28;20056;-43
2021/08/23 01:44:06;;;;;;;10.75;7.22;;;16.80;99.90;;;;;;12496621;28;20103;-43
2021/08/23 01:50:09;;;;;;;9.15;6.88;;;16.80;99.90;;;;;;12489298;28;20052;-43
2021/08/23 01:56:10;;;;;;;13.10;7.93;;;16.80;99.90;;;;;;12481538;28;20055;-43
2021/08/23 02:02:12;;;;;;;12.63;8.35;;;16.70;99.90;;;;;;12486048;28;20057;-43
2021/08/23 02:08:15;;;;;;;13.68;9.90;;;16.70;99.90;;;;;;12480336;28;20053;-46
2021/08/23 02:14:17;;;;;;;13.18;9.70;;;16.50;99.90;;;;;;12499007;28;20052;-44
2021/08/23 02:20:19;;;;;;;12.88;10.30;;;16.30;99.90;;;;;;12488858;28;20096;-43
2021/08/23 02:26:24;;;;;;;11.60;10.40;;;16.30;99.90;;;;;;12494439;28;20056;-45
2021/08/23 02:32:26;;;;;;;13.25;10.30;;;16.30;99.90;;;;;;12495030;28;20649;-43
2021/08/23 02:38:28;;;;;;;11.93;9.85;;;16.20;99.90;;;;;;12481468;28;20049;-46
2021/08/23 02:44:29;;;;;;;14.55;11.38;;;16.30;99.90;;;;;;12477105;28;20136;-44
2021/08/23 02:50:31;;;;;;;17.63;10.85;;;16.40;99.90;;;;;;12499305;28;20060;-43
2021/08/23 02:56:33;;;;;;;11.57;10.13;;;16.30;99.90;;;;;;12486898;28;20102;-44
2021/08/23 03:02:35;;;;;;;10.57;9.40;;;16.30;99.90;;;;;;12487116;28;20167;-46
2021/08/23 03:08:37;;;;;;;13.25;9.52;;;16.50;99.90;;;;;;12477298;28;20524;-44
2021/08/23 03:14:39;;;;;;;18.85;9.73;;;16.40;99.90;;;;;;12487390;28;20052;-46
2021/08/23 03:20:41;;;;;;;11.63;9.57;;;16.30;99.90;;;;;;12499400;28;20056;-43
2021/08/23 03:26:43;;;;;;;10.70;8.48;;;16.20;99.90;;;;;;12499912;28;20049;-44
2021/08/23 03:32:45;;;;;;;9.68;7.97;;;16.30;99.90;;;;;;12498990;28;20493;-44
2021/08/23 03:38:47;;;;;;;13.70;7.78;;;16.20;99.90;;;;;;12501478;28;20137;-45
2021/08/23 03:44:50;;;;;;;12.25;8.85;;;16.00;99.90;;;;;;12499424;28;20060;-45
2021/08/23 03:50:53;;;;;;;10.23;9.05;;;16.00;99.90;;;;;;12495665;28;20526;-43
2021/08/23 03:56:54;;;;;;;11.10;8.60;;;16.10;99.90;;;;;;12506860;28;20709;-46
2021/08/23 04:02:57;;;;;;;10.85;8.23;;;16.10;99.90;;;;;;12504962;28;20057;-44
2021/08/23 04:08:59;;;;;;;11.02;8.55;;;16.20;99.90;;;;;;12502146;28;20068;-44
2021/08/23 04:15:01;;;;;;;11.00;8.80;;;16.40;99.90;;;;;;12503632;28;20057;-44
2021/08/23 04:21:03;;;;;;;11.45;9.02;;;16.30;99.90;;;;;;12505811;28;21012;-43
2021/08/23 04:27:05;;;;;;;12.52;9.00;;;16.30;99.90;;;;;;12508844;28;20061;-44
2021/08/23 04:33:07;;;;;;;11.32;9.45;;;16.20;99.90;;;;;;12504669;28;20067;-43
2021/08/23 04:39:09;;;;;;;11.02;9.25;;;16.20;99.90;;;;;;12506658;28;20060;-46
2021/08/23 04:45:11;;;;;;;12.80;9.93;;;16.20;99.90;;;;;;12502887;28;20457;-44
2021/08/23 04:51:13;;;;;;;14.73;11.02;;;16.20;99.90;;;;;;12511753;28;20045;-46
2021/08/23 04:57:16;;;;;;;15.10;11.50;;;16.20;99.90;;;;;;12510927;28;20447;-44
2021/08/23 05:03:18;;;;;;;17.08;13.02;;;16.10;99.90;;;;;;12513139;28;20079;-43
2021/08/23 05:09:21;;;;;;;17.25;13.88;;;16.10;99.90;;;;;;12517881;28;20056;-44
2021/08/23 05:15:24;;;;;;;19.70;15.48;;;16.00;99.90;;;;;;12517339;28;20087;-45
2021/08/23 05:21:26;;;;;;;22.75;16.45;;;16.00;99.90;;;;;;12513105;28;20049;-43
2021/08/23 05:27:28;;;;;;;25.33;17.48;;;16.10;99.90;;;;;;12512350;28;20136;-46
2021/08/23 05:33:35;;;;;;;23.05;17.58;;;16.00;99.90;;;;;;12502992;28;20045;-45
2021/08/23 05:39:43;;;;;;;24.08;17.15;;;16.10;99.90;;;;;;12514251;28;20056;-43
2021/08/23 05:45:45;;;;;;;22.75;16.80;;;16.10;99.90;;;;;;12497048;28;20049;-44
2021/08/23 05:51:48;;;;;;;25.33;18.27;;;16.10;99.90;;;;;;12510027;28;20048;-43
2021/08/23 05:57:50;;;;;;;24.92;19.23;;;16.00;99.90;;;;;;12512604;28;20049;-45
2021/08/23 06:03:54;;;;;;;26.63;19.42;;;16.00;99.90;;;;;;12508435;28;20069;-43
2021/08/23 06:09:56;;;;;;;28.23;21.40;;;16.00;99.90;;;;;;12509782;28;20441;-44
2021/08/23 06:16:05;;;;;;;23.55;18.83;;;15.80;99.90;;;;;;12497823;28;20056;-44
2021/08/23 06:22:07;;;;;;;25.25;19.23;;;15.90;99.90;;;;;;12503918;28;20045;-43
2021/08/23 06:28:09;;;;;;;26.58;20.05;;;15.90;99.90;;;;;;12507129;28;20064;-43
2021/08/23 06:34:11;;;;;;;25.52;20.42;;;15.90;99.90;;;;;;12508433;28;20111;-43
2021/08/23 06:40:14;;;;;;;24.75;19.98;;;16.00;99.90;;;;;;12504144;28;20080;-42
2021/08/23 06:46:16;;;;;;;20.90;17.67;;;16.00;99.90;;;;;;12500376;28;20778;-44
2021/08/23 06:52:22;;;;;;;20.80;17.13;;;16.00;99.90;;;;;;12509310;28;20048;-43
2021/08/23 06:58:24;;;;;;;20.48;15.30;;;15.90;99.90;;;;;;12504635;28;20349;-43
2021/08/23 07:04:26;;;;;;;18.48;14.38;;;16.00;99.90;;;;;;12507766;28;20076;-44
2021/08/23 07:10:28;;;;;;;20.02;14.70;;;15.90;99.90;;;;;;12505713;28;20117;-43
2021/08/23 07:16:35;;;;;;;19.00;14.02;;;16.00;99.90;;;;;;12502968;28;20728;-45
2021/08/23 07:22:46;;;;;;;14.00;11.43;;;16.10;99.90;;;;;;12504167;28;20547;-44
2021/08/23 07:28:48;;;;;;;15.13;11.00;;;16.20;99.90;;;;;;12502459;28;20049;-45
2021/08/23 07:34:53;;;;;;;11.93;8.55;;;16.20;99.90;;;;;;12514884;28;20638;-43
2021/08/23 07:41:01;;;;;;;12.23;8.02;;;16.30;99.90;;;;;;12502806;28;20056;-43
2021/08/23 07:47:03;;;;;;;11.45;7.70;;;16.30;99.90;;;;;;12512637;28;20061;-44
2021/08/23 07:53:05;;;;;;;10.52;7.40;;;16.20;99.90;;;;;;12511810;28;20048;-45
2021/08/23 07:59:07;;;;;;;10.57;6.85;;;16.10;99.90;;;;;;12515594;28;20053;-43
2021/08/23 08:05:10;;;;;;;8.40;6.18;;;16.10;99.90;;;;;;12509472;28;20060;-44
2021/08/23 08:11:12;;;;;;;9.60;6.70;;;16.40;99.90;;;;;;12502063;28;20361;-44
2021/08/23 08:17:17;;;;;;;10.07;6.63;;;16.50;99.90;;;;;;12476749;28;20064;-44
2021/08/23 08:23:22;;;;;;;12.95;6.50;;;16.50;99.90;;;;;;12466681;28;20461;-43
2021/08/23 08:29:24;;;;;;;8.20;5.20;;;16.60;99.90;;;;;;12470712;28;20049;-45
2021/08/23 08:35:30;;;;;;;10.38;6.10;;;16.70;99.90;;;;;;12474200;28;20099;-44
2021/08/23 08:41:34;;;;;;;7.93;5.82;;;16.30;99.90;;;;;;12470285;28;20128;-43
2021/08/23 08:47:42;;;;;;;11.43;5.90;;;16.40;99.90;;;;;;12474029;28;20045;-43
2021/08/23 08:53:46;;;;;;;9.50;6.10;;;16.40;99.90;;;;;;12472853;28;20050;-43
2021/08/23 08:59:48;;;;;;;12.30;5.57;;;16.40;99.90;;;;;;12474383;28;20041;-48
2021/08/23 09:06:04;;;;;;;9.82;5.70;;;16.60;99.90;;;;;;12471845;28;20088;-43
2021/08/23 09:12:13;;;;;;;10.90;5.20;;;16.70;99.90;;;;;;12462056;28;20331;-45
2021/08/23 09:18:20;;;;;;;6.72;4.80;;;16.90;99.90;;;;;;12504305;28;20041;-43
2021/08/23 09:24:22;;;;;;;8.00;5.75;;;16.90;99.90;;;;;;12505610;28;20042;-44
2021/08/23 09:30:25;;;;;;;8.68;4.78;;;16.90;99.90;;;;;;12473083;28;20868;-43
2021/08/23 09:36:28;;;;;;;8.07;4.55;;;16.60;99.90;;;;;;12496324;28;20090;-44
2021/08/23 09:42:32;;;;;;;7.82;4.13;;;16.70;99.90;;;;;;12493360;28;20041;-44
2021/08/23 09:48:37;;;;;;;9.98;4.00;;;16.60;99.90;;;;;;12495335;28;20083;-44
2021/08/23 09:54:42;;;;;;;5.78;4.15;;;16.70;99.90;;;;;;12488893;28;20087;-48
2021/08/23 10:00:45;;;;;;;8.90;4.05;;;16.70;99.90;;;;;;12495524;28;20068;-43
2021/08/23 10:06:50;;;;;;;5.75;3.75;;;16.90;99.90;;;;;;12486657;28;20049;-45
2021/08/23 10:12:52;;;;;;;5.93;3.85;;;17.10;99.90;;;;;;12501441;28;20156;-44
2021/08/23 10:18:58;;;;;;;4.95;3.90;;;17.20;99.90;;;;;;12493102;28;20084;-46
2021/08/23 10:25:01;;;;;;;8.05;4.85;;;16.90;99.90;;;;;;12507513;28;20090;-44
2021/08/23 10:31:08;;;;;;;6.70;4.47;;;16.90;99.90;;;;;;12476973;28;20052;-44
2021/08/23 10:37:27;;;;;;;6.97;4.00;;;16.90;99.90;;;;;;12490372;28;20057;-45
2021/08/23 10:43:33;;;;;;;8.18;4.57;;;17.00;99.90;;;;;;12499155;28;20052;-44
2021/08/23 10:49:39;;;;;;;7.22;5.00;;;17.10;99.90;;;;;;12495237;28;20140;-46
2021/08/23 10:55:43;;;;;;;7.53;4.65;;;17.00;99.90;;;;;;12488983;28;20408;-44
2021/08/23 11:01:56;;;;;;;8.07;4.53;;;17.10;99.90;;;;;;12489963;28;20045;-44
2021/08/23 11:08:03;;;;;;;9.07;4.73;;;17.20;99.90;;;;;;12493964;28;20045;-45
2021/08/23 11:14:21;;;;;;;8.40;5.30;;;17.30;99.90;;;;;;12506854;28;20053;-44
2021/08/23 11:20:45;;;;;;;7.72;4.95;;;17.40;99.90;;;;;;12500179;28;20572;-42
2021/08/23 11:27:01;;;;;;;8.18;5.70;;;17.60;99.90;;;;;;12483628;28;20049;-46
2021/08/23 11:33:07;;;;;;;7.05;4.93;;;17.60;99.90;;;;;;12496008;28;20053;-43
2021/08/23 11:39:11;;;;;;;9.70;4.95;;;17.40;99.90;;;;;;12487219;28;20107;-43
2021/08/23 11:45:20;;;;;;;5.95;4.50;;;17.70;99.90;;;;;;12497171;28;20204;-43
2021/08/23 11:51:36;;;;;;;6.25;3.88;;;17.90;99.90;;;;;;12487736;28;20064;-46
2021/08/23 11:57:40;;;;;;;8.07;3.90;;;18.40;99.90;;;;;;12494866;28;20045;-47
2021/08/23 12:03:43;;;;;;;5.00;3.50;;;19.00;99.90;;;;;;12500437;28;20049;-43
2021/08/23 12:09:45;;;;;;;7.45;4.00;;;19.20;99.90;;;;;;12502457;28;20061;-44
2021/08/23 12:15:56;;;;;;;6.22;3.85;;;19.30;99.90;;;;;;12492019;28;20164;-46
2021/08/23 12:22:03;;;;;;;6.15;3.50;;;19.50;99.90;;;;;;12508770;28;20531;-46
2021/08/23 12:28:15;;;;;;;5.88;3.00;;;20.10;99.90;;;;;;12513689;28;20049;-43
2021/08/23 12:34:27;;;;;;;5.20;2.60;;;20.40;99.90;;;;;;12497116;28;20370;-46
2021/08/23 12:40:29;;;;;;;3.80;2.53;;;20.90;99.90;;;;;;12506508;28;20140;-48
2021/08/23 12:46:31;;;;;;;7.45;2.40;;;21.50;99.90;;;;;;12502595;28;20045;-46
2021/08/23 12:52:35;;;;;;;6.10;2.20;;;21.10;99.90;;;;;;12488007;28;20048;-44
2021/08/23 12:58:37;;;;;;;5.60;2.30;;;21.10;99.90;;;;;;12498840;28;20053;-48
2021/08/23 13:04:39;;;;;;;3.88;1.88;;;20.50;99.90;;;;;;12497790;28;20746;-45
2021/08/23 13:10:44;;;;;;;3.28;1.75;;;20.70;99.90;;;;;;12500382;28;20049;-43
2021/08/23 13:16:46;;;;;;;5.38;1.80;;;21.30;99.90;;;;;;12514377;28;20057;-46
2021/08/23 13:22:48;;;;;;;4.15;1.60;;;21.40;99.90;;;;;;12517945;28;20093;-44
2021/08/23 13:28:54;;;;;;;4.20;1.60;;;20.70;99.90;;;;;;12501294;28;20057;-46
2021/08/23 13:34:59;;;;;;;4.85;1.40;;;20.30;99.90;;;;;;12499742;28;20778;-46
2021/08/23 13:41:01;;;;;;;3.65;1.33;;;20.00;99.90;;;;;;12490875;28;20102;-44
2021/08/23 13:47:03;;;;;;;2.80;1.17;;;20.00;99.90;;;;;;12492398;28;20111;-49
2021/08/23 13:53:12;;;;;;;1.92;1.00;;;20.90;99.90;;;;;;12494033;28;20041;-47
2021/08/23 13:59:14;;;;;;;2.55;1.27;;;21.50;99.90;;;;;;12471574;28;20049;-44
2021/08/23 14:05:18;;;;;;;3.45;1.10;;;21.70;99.90;;;;;;12458395;28;20045;-44
2021/08/23 14:11:21;;;;;;;2.30;1.08;;;20.80;99.90;;;;;;12467321;28;20485;-44
2021/08/23 14:17:24;;;;;;;2.90;1.17;;;20.30;99.90;;;;;;12508291;28;20072;-43
2021/08/23 14:23:30;;;;;;;2.88;1.00;;;20.70;99.90;;;;;;12494412;28;20280;-45
2021/08/23 14:29:35;;;;;;;2.60;1.02;;;21.50;99.90;;;;;;12494088;28;20049;-44
2021/08/23 14:35:37;;;;;;;2.55;0.80;;;21.90;99.90;;;;;;12509469;28;20041;-44
2021/08/23 14:41:40;;;;;;;3.25;1.27;;;21.20;99.90;;;;;;12509916;28;20049;-45
2021/08/23 14:47:42;;;;;;;1.83;0.85;;;20.60;99.90;;;;;;12509336;28;20095;-48
2021/08/23 14:53:44;;;;;;;2.53;0.98;;;20.20;99.90;;;;;;12511543;28;20049;-44
2021/08/23 14:59:46;;;;;;;2.50;0.98;;;20.20;99.90;;;;;;12515183;28;20753;-45
2021/08/23 15:05:48;;;;;;;4.43;1.20;;;20.90;99.90;;;;;;12505079;28;20084;-46
2021/08/23 15:11:50;;;;;;;3.33;1.20;;;20.30;99.90;;;;;;12501511;28;20048;-43
2021/08/23 15:17:52;;;;;;;2.42;1.27;;;21.00;99.90;;;;;;12503226;28;20107;-46
2021/08/23 15:24:16;;;;;;;3.08;1.40;;;21.40;99.90;;;;;;12504883;28;20045;-44
2021/08/23 15:30:18;;;;;;;2.90;1.45;;;22.20;99.90;;;;;;12506662;28;20053;-45
2021/08/23 15:36:20;;;;;;;2.45;1.17;;;22.30;99.90;;;;;;12511100;28;20574;-44
2021/08/23 15:42:22;;;;;;;3.83;1.73;;;21.70;99.90;;;;;;12506443;28;20049;-44
2021/08/23 15:48:24;;;;;;;3.63;1.63;;;21.00;99.90;;;;;;12507400;28;20078;-46
2021/08/23 15:54:26;;;;;;;3.47;1.52;;;21.10;99.90;;;;;;12519252;28;20076;-43
2021/08/23 16:00:29;;;;;;;3.88;1.80;;;21.70;99.90;;;;;;12518308;28;20052;-43
2021/08/23 16:06:31;;;;;;;2.88;1.55;;;21.60;99.90;;;;;;12515977;28;20481;-46
2021/08/23 16:12:34;;;;;;;4.60;1.67;;;22.10;99.90;;;;;;12516366;28;20420;-44
2021/08/23 16:18:41;;;;;;;4.35;1.45;;;22.10;99.90;;;;;;12515866;28;20703;-44
2021/08/23 16:24:43;;;;;;;3.17;1.50;;;21.80;99.90;;;;;;12515090;28;20076;-46
2021/08/23 16:30:45;;;;;;;2.70;1.50;;;22.10;99.90;;;;;;12513655;28;20048;-47
2021/08/23 16:36:49;;;;;;;4.03;1.58;;;22.50;99.90;;;;;;12517898;28;20422;-45
2021/08/23 16:42:54;;;;;;;3.38;1.70;;;22.60;99.90;;;;;;12517123;28;20086;-45
2021/08/23 16:48:58;;;;;;;3.67;1.48;;;22.80;99.90;;;;;;12510607;28;20089;-44
2021/08/23 16:55:02;;;;;;;2.80;1.42;;;23.00;99.90;;;;;;12517066;28;20053;-45
2021/08/23 17:01:04;;;;;;;4.70;1.30;;;22.80;99.90;;;;;;12467242;28;20094;-45
2021/08/23 17:07:44;;;;;;;2.97;1.25;;;22.50;99.90;;;;;;12494727;28;20148;-44
2021/08/23 17:13:46;;;;;;;3.42;1.30;;;21.90;99.90;;;;;;12498017;28;20553;-43
2021/08/23 17:19:48;;;;;;;3.95;1.35;;;21.30;99.90;;;;;;12513541;28;20049;-43
2021/08/23 17:25:50;;;;;;;4.43;1.63;;;21.00;99.90;;;;;;12515650;28;20103;-48
2021/08/23 17:31:53;;;;;;;3.13;0.93;;;20.60;99.90;;;;;;12500686;28;20135;-43
2021/08/23 17:37:55;;;;;;;2.53;1.27;;;19.80;99.90;;;;;;12513213;28;20053;-44
2021/08/23 17:44:00;;;;;;;5.85;1.35;;;19.50;99.90;;;;;;12512614;28;20048;-45
2021/08/23 17:50:03;;;;;;;2.80;1.20;;;19.20;99.90;;;;;;12510999;28;20171;-45
2021/08/23 17:56:12;;;;;;;2.20;1.00;;;19.10;99.90;;;;;;12507753;28;20114;-47
2021/08/23 18:02:14;;;;;;;3.03;1.10;;;19.00;99.90;;;;;;12511072;28;20389;-44
2021/08/23 18:08:17;;;;;;;4.07;1.20;;;18.80;99.90;;;;;;12506221;28;20081;-43
2021/08/23 18:14:19;;;;;;;2.92;1.42;;;18.70;99.90;;;;;;12504338;28;20055;-44
2021/08/23 18:20:21;;;;;;;7.60;1.38;;;18.60;99.90;;;;;;12488352;28;20477;-44
2021/08/23 18:26:23;;;;;;;3.08;1.27;;;18.50;99.90;;;;;;12507172;28;20049;-44
2021/08/23 18:32:26;;;;;;;4.15;1.15;;;18.40;99.90;;;;;;12506575;28;20049;-44
2021/08/23 18:38:28;;;;;;;2.40;1.27;;;18.30;99.90;;;;;;12505045;28;20079;-43
2021/08/23 18:44:32;;;;;;;2.35;1.00;;;18.50;99.90;;;;;;12506611;28;20769;-44
2021/08/23 18:50:34;;;;;;;5.20;1.30;;;18.40;99.90;;;;;;12505737;28;20056;-44
2021/08/23 18:56:43;;;;;;;3.38;1.17;;;18.40;99.90;;;;;;12506411;28;20045;-45
2021/08/23 19:02:45;;;;;;;2.78;1.40;;;18.20;99.90;;;;;;12501755;28;20674;-43
2021/08/23 19:08:48;;;;;;;4.03;1.40;;;18.00;99.90;;;;;;12502627;28;20094;-44
2021/08/23 19:14:58;;;;;;;5.13;1.42;;;17.80;99.90;;;;;;12498420;28;20560;-43
2021/08/23 19:21:02;;;;;;;3.03;1.20;;;17.80;99.90;;;;;;12501094;28;20069;-43
2021/08/23 19:27:04;;;;;;;3.80;1.20;;;17.70;99.90;;;;;;12499034;28;20059;-44
2021/08/23 19:33:09;;;;;;;3.40;1.30;;;17.80;99.90;;;;;;12497416;28;20103;-44
2021/08/23 19:39:11;;;;;;;3.47;1.30;;;17.70;99.90;;;;;;12500930;28;20057;-45
2021/08/23 19:45:16;;;;;;;4.53;1.30;;;17.70;99.90;;;;;;12499554;28;20044;-44
2021/08/23 19:51:19;;;;;;;2.65;1.00;;;17.80;99.90;;;;;;12482682;28;20041;-45
2021/08/23 19:57:20;;;;;;;2.70;1.17;;;17.40;99.90;;;;;;12498935;28;20094;-44
2021/08/23 20:03:22;;;;;;;2.70;0.88;;;17.30;99.90;;;;;;12500929;28;20106;-47
2021/08/23 20:09:25;;;;;;;1.90;1.05;;;17.20;99.90;;;;;;12501166;28;20404;-46
2021/08/23 20:15:27;;;;;;;3.47;1.08;;;17.20;99.90;;;;;;12495303;28;20528;-43
2021/08/23 20:21:30;;;;;;;3.85;1.50;;;17.30;99.90;;;;;;12504442;28;20051;-44
2021/08/23 20:27:33;;;;;;;2.72;1.10;;;17.20;99.90;;;;;;12494591;28;20044;-44
2021/08/23 20:33:44;;;;;;;3.85;1.27;;;17.20;99.90;;;;;;12501204;28;20465;-43
2021/08/23 20:39:51;;;;;;;3.03;1.23;;;17.10;99.90;;;;;;12500419;28;20049;-43
2021/08/23 20:45:53;;;;;;;2.35;1.10;;;17.00;99.90;;;;;;12494193;28;20064;-43
2021/08/23 20:51:57;;;;;;;2.63;1.20;;;17.20;99.90;;;;;;12505630;28;20486;-45
2021/08/23 20:58:11;;;;;;;2.30;0.95;;;17.10;99.90;;;;;;12501834;28;20076;-46
2021/08/23 21:04:18;;;;;;;2.90;1.10;;;17.10;99.90;;;;;;12502191;28;20053;-43
2021/08/23 21:10:20;;;;;;;2.90;0.90;;;17.00;99.90;;;;;;12511480;28;20467;-43
2021/08/23 21:16:23;;;;;;;5.90;2.88;;;17.10;99.90;;;;;;12503474;28;20493;-43
2021/08/23 21:22:25;;;;;;;5.70;2.30;;;17.00;99.90;;;;;;12506211;28;20056;-44
2021/08/23 21:28:27;;;;;;;5.13;2.38;;;17.00;99.90;;;;;;12502775;28;20053;-44
2021/08/23 21:34:28;;;;;;;2.03;1.00;;;17.00;99.90;;;;;;12483095;28;20660;-44
2021/08/23 21:40:31;;;;;;;5.38;1.13;;;17.00;99.90;;;;;;12508541;28;20447;-43
2021/08/23 21:46:33;;;;;;;1.50;0.88;;;16.80;99.90;;;;;;12506239;28;20051;-43
2021/08/23 21:52:35;;;;;;;1.92;1.00;;;16.80;99.90;;;;;;12501740;28;20709;-44
2021/08/23 21:58:37;;;;;;;3.60;1.20;;;16.60;99.90;;;;;;12506989;28;20132;-44
2021/08/23 22:04:39;;;;;;;1.65;0.90;;;16.60;99.90;;;;;;12500174;28;20088;-45
2021/08/23 22:10:41;;;;;;;3.28;1.20;;;16.50;99.90;;;;;;12505152;28;20410;-44
2021/08/23 22:16:43;;;;;;;3.25;1.35;;;16.30;99.90;;;;;;12492759;28;20164;-43
2021/08/23 22:22:45;;;;;;;2.10;1.02;;;16.30;99.90;;;;;;12499001;28;20103;-43
2021/08/23 22:28:49;;;;;;;3.85;1.20;;;16.10;99.90;;;;;;12500493;28;20049;-42
2021/08/23 22:34:51;;;;;;;4.32;1.10;;;15.90;99.90;;;;;;12499025;28;20455;-43
2021/08/23 22:40:53;;;;;;;2.00;0.93;;;15.80;99.90;;;;;;12502763;28;20127;-44
2021/08/23 22:46:55;;;;;;;2.80;1.20;;;15.70;99.90;;;;;;12499400;28;20114;-42
2021/08/23 22:52:57;;;;;;;3.97;1.45;;;15.60;99.90;;;;;;12499526;28;20044;-43
2021/08/23 22:58:59;;;;;;;2.45;1.15;;;15.50;99.90;;;;;;12500960;28;20110;-43
2021/08/23 23:05:02;;;;;;;4.03;1.30;;;15.40;99.90;;;;;;12498996;28;20499;-44
2021/08/23 23:11:04;;;;;;;2.28;1.13;;;15.20;99.90;;;;;;12499648;28;20080;-43
2021/08/23 23:17:06;;;;;;;2.60;1.08;;;15.10;99.90;;;;;;12496720;28;20152;-43
2021/08/23 23:23:08;;;;;;;4.30;1.38;;;15.10;99.90;;;;;;12502204;28;20095;-43
2021/08/23 23:29:10;;;;;;;2.28;1.00;;;15.00;99.90;;;;;;12499005;28;20064;-43
2021/08/23 23:35:13;;;;;;;3.05;1.20;;;15.00;99.90;;;;;;12498800;28;20094;-44
2021/08/23 23:41:15;;;;;;;6.32;1.35;;;14.90;99.90;;;;;;12487799;28;20048;-42
2021/08/23 23:47:17;;;;;;;5.15;1.15;;;14.80;99.90;;;;;;12494547;28;20045;-42
2021/08/23 23:53:19;;;;;;;4.50;1.15;;;14.70;99.90;;;;;;12495165;28;20053;-43
2021/08/23 23:59:21;;;;;;;2.88;1.10;;;14.60;99.90;;;;;;12500627;28;20041;-43
